createdAt,value
2022-08-05T13:28:28.062Z,31.63
2022-08-05T13:34:22.648Z,32.19
2022-08-05T13:38:56.484Z,32.41
2022-08-05T13:43:59.540Z,32.63
2022-08-05T13:49:10.122Z,32.80
2022-08-05T13:54:15.429Z,32.90
2022-08-05T13:59:24.157Z,33.02
2022-08-05T14:04:51.482Z,33.10
2022-08-05T14:09:53.954Z,33.32
2022-08-05T14:16:03.896Z,33.52
2022-08-05T14:20:30.077Z,33.69
2022-08-05T14:25:32.215Z,33.69
2022-08-05T14:30:42.994Z,33.70
2022-08-05T14:35:54.970Z,33.84
2022-08-05T14:40:57.448Z,33.91
2022-08-05T14:46:02.499Z,33.89
2022-08-05T14:51:05.272Z,33.88
2022-08-05T14:56:13.522Z,33.84
2022-08-05T15:01:22.762Z,33.83
2022-08-05T15:06:49.414Z,33.84
2022-08-05T15:12:27.683Z,33.78
2022-08-05T15:17:46.191Z,33.85
2022-08-05T15:22:54.866Z,33.88
2022-08-05T15:28:06.623Z,33.93
2022-08-05T15:34:04.916Z,33.99
2022-08-05T15:38:41.811Z,33.98
2022-08-05T15:43:47.527Z,33.94
2022-08-05T15:49:01.407Z,33.86
2022-08-05T15:54:38.264Z,33.81
2022-08-05T15:59:57.805Z,33.77
2022-08-05T16:05:09.727Z,33.74
2022-08-05T16:10:16.548Z,33.69
2022-08-05T16:15:47.240Z,33.66
2022-08-05T16:21:59.417Z,33.59
2022-08-05T16:27:00.511Z,33.51
2022-08-05T16:32:12.012Z,33.43
2022-08-05T16:38:01.799Z,33.34
2022-08-05T16:42:38.696Z,33.21
2022-08-05T16:48:02.931Z,33.11
2022-08-05T16:53:32.470Z,32.95
2022-08-05T16:58:49.988Z,32.75
2022-08-05T17:04:05.429Z,32.67
2022-08-05T17:09:12.841Z,32.56
2022-08-05T17:14:37.407Z,32.43
2022-08-05T17:19:55.610Z,32.26
2022-08-05T17:25:33.897Z,32.09
2022-08-05T17:30:51.687Z,31.89
2022-08-05T17:36:33.970Z,31.69
2022-08-05T17:42:17.707Z,31.41
2022-08-05T17:47:53.561Z,31.08
2022-08-05T17:53:13.749Z,30.76
2022-08-05T17:58:21.599Z,30.44
2022-08-05T18:03:59.009Z,30.13
2022-08-05T18:09:09.772Z,29.80
2022-08-05T18:14:56.391Z,29.48
2022-08-05T18:20:14.058Z,29.16
2022-08-05T18:25:17.894Z,28.87
2022-08-05T18:30:41.143Z,28.60
2022-08-05T18:36:03.377Z,28.31
2022-08-05T18:41:57.291Z,28.02
2022-08-05T18:46:44.192Z,27.73
2022-08-05T18:52:32.766Z,27.47
2022-08-05T18:58:03.140Z,27.21
2022-08-05T19:03:05.891Z,26.97
2022-08-05T19:08:16.905Z,26.76
2022-08-05T19:13:47.896Z,26.55
2022-08-05T19:19:46.784Z,26.35
2022-08-05T19:25:21.650Z,26.17
2022-08-05T19:30:52.319Z,25.99
2022-08-05T19:36:09.033Z,25.81
2022-08-05T19:42:06.915Z,25.63
2022-08-05T19:47:23.360Z,25.44
2022-08-05T19:52:49.115Z,25.26
2022-08-05T19:58:28.251Z,25.10
2022-08-05T20:03:43.081Z,24.96
2022-08-05T20:08:47.526Z,24.81
2022-08-05T20:13:58.252Z,24.67
2022-08-05T20:19:35.993Z,24.54
2022-08-05T20:24:38.769Z,24.42
2022-08-05T20:30:20.692Z,24.30
2022-08-05T20:35:45.691Z,24.17
2022-08-05T20:41:11.250Z,24.04
2022-08-05T20:46:29.142Z,23.91
2022-08-05T20:51:40.406Z,23.80
2022-08-05T20:56:42.830Z,23.69
2022-08-05T21:02:31.027Z,23.59
2022-08-05T21:07:51.927Z,23.48
2022-08-05T21:13:47.836Z,23.42
2022-08-05T21:19:47.085Z,23.33
2022-08-05T21:25:03.931Z,23.24
2022-08-05T21:31:01.332Z,23.15
2022-08-05T21:36:34.409Z,23.05
2022-08-05T21:42:40.973Z,22.97
2022-08-05T21:48:06.248Z,22.86
2022-08-05T21:53:38.119Z,22.76
2022-08-05T21:58:58.045Z,22.67
2022-08-05T22:05:08.925Z,22.59
2022-08-05T22:10:42.344Z,22.49
2022-08-05T22:16:41.604Z,22.40
2022-08-05T22:22:28.049Z,22.31
2022-08-05T22:28:04.968Z,22.23
2022-08-05T22:33:16.090Z,22.16
2022-08-05T22:38:26.718Z,22.12
2022-08-05T22:44:36.472Z,22.04
2022-08-05T22:50:23.410Z,21.97
2022-08-05T22:55:59.273Z,21.90
2022-08-05T23:02:13.304Z,21.83
2022-08-05T23:08:34.267Z,21.78
2022-08-05T23:14:04.281Z,21.76
2022-08-05T23:20:19.386Z,21.74
2022-08-05T23:26:40.791Z,21.74
2022-08-05T23:32:33.117Z,21.73
2022-08-05T23:37:57.156Z,21.71
2022-08-05T23:44:05.207Z,21.65
2022-08-05T23:49:56.459Z,21.58
2022-08-05T23:55:32.843Z,21.48
